Time;durP1;ratioP1;P1;durP2;ratioP2;P2;SDS_P1;SDS_P2;PMS_P1;PMS_P2;Temp;Humidity;BMP_temperature;BMP_pressure;BME280_temperature;BME280_humidity;BME280_pressure;Samples;Min_cycle;Max_cycle;Signal;HPM_P1;HPM_P2
2022/10/27 00:00:46;;;;;;;11.65;7.63;;;13.10;99.90;;;;;;4810010;29;88730;-30
2022/10/27 00:03:12;;;;;;;10.57;7.10;;;13.10;99.90;;;;;;4809567;29;89812;-29
2022/10/27 00:05:38;;;;;;;14.18;8.15;;;13.10;99.90;;;;;;4809334;29;90293;-31
2022/10/27 00:08:04;;;;;;;13.10;8.55;;;13.10;99.90;;;;;;4808830;29;89227;-30
2022/10/27 00:10:30;;;;;;;11.77;7.25;;;13.10;99.90;;;;;;4809756;29;88881;-28
2022/10/27 00:12:55;;;;;;;15.27;8.88;;;13.10;99.90;;;;;;4808521;29;89566;-29
2022/10/27 00:15:21;;;;;;;10.50;8.40;;;13.10;99.90;;;;;;4809544;29;89507;-29
2022/10/27 00:17:47;;;;;;;10.43;8.07;;;13.10;99.90;;;;;;4808793;29;90225;-29
2022/10/27 00:20:13;;;;;;;9.50;7.63;;;13.00;99.90;;;;;;4808463;29;90541;-32
2022/10/27 00:22:38;;;;;;;11.38;7.07;;;13.00;99.90;;;;;;4808910;29;91586;-28
2022/10/27 00:25:05;;;;;;;13.98;8.40;;;13.00;99.90;;;;;;4808706;29;89938;-29
2022/10/27 00:27:31;;;;;;;10.27;8.45;;;13.00;99.90;;;;;;4809484;29;90141;-32
2022/10/27 00:29:56;;;;;;;11.68;8.68;;;13.00;99.90;;;;;;4808541;29;88999;-31
2022/10/27 00:32:23;;;;;;;14.10;9.05;;;13.00;99.90;;;;;;4808571;29;90301;-30
2022/10/27 00:34:48;;;;;;;13.88;7.60;;;13.00;99.90;;;;;;4807358;29;89628;-29
2022/10/27 00:37:14;;;;;;;9.90;8.93;;;13.00;99.90;;;;;;4808947;29;91266;-30
2022/10/27 00:39:40;;;;;;;9.23;8.18;;;13.10;99.90;;;;;;4808931;29;89414;-32
2022/10/27 00:42:05;;;;;;;15.43;8.75;;;13.10;99.90;;;;;;4808841;29;90440;-28
2022/10/27 00:44:40;;;;;;;8.60;7.80;;;13.10;99.90;;;;;;4808563;29;90733;-31
2022/10/27 00:47:09;;;;;;;9.05;8.15;;;13.10;99.90;;;;;;4809188;29;90577;-30
2022/10/27 00:49:39;;;;;;;;;;;13.10;99.90;;;;;;4809014;29;89002;-28
2022/10/27 00:52:27;;;;;;;10.15;7.45;;;13.10;99.90;;;;;;4810265;29;89953;-29
2022/10/27 00:54:55;;;;;;;13.13;7.77;;;13.20;99.90;;;;;;4808138;29;90035;-29
2022/10/27 00:57:21;;;;;;;14.30;8.40;;;13.30;99.90;;;;;;4808614;29;89261;-30
2022/10/27 00:59:47;;;;;;;13.32;8.27;;;13.40;99.90;;;;;;4809298;29;90718;-29
2022/10/27 01:02:14;;;;;;;14.82;8.60;;;13.40;99.90;;;;;;4808846;29;89988;-28
2022/10/27 01:04:58;;;;;;;15.52;8.57;;;13.50;99.90;;;;;;4808072;29;89448;-34
2022/10/27 01:07:26;;;;;;;12.00;8.63;;;13.50;99.90;;;;;;4808364;29;89068;-28
2022/10/27 01:09:51;;;;;;;12.18;9.90;;;13.50;99.90;;;;;;4808117;29;90649;-31
2022/10/27 01:12:17;;;;;;;11.52;8.57;;;13.50;99.90;;;;;;4808381;29;91413;-31
2022/10/27 01:14:43;;;;;;;10.73;8.77;;;13.60;99.90;;;;;;4791531;29;90359;-28
2022/10/27 01:17:34;;;;;;;12.25;8.75;;;13.60;99.90;;;;;;4808174;29;89821;-29
2022/10/27 01:20:26;;;;;;;13.05;8.32;;;13.60;99.90;;;;;;4808690;29;89753;-29
2022/10/27 01:23:38;;;;;;;13.23;9.38;;;13.60;99.90;;;;;;4806562;29;89931;-32
2022/10/27 01:26:28;;;;;;;10.68;8.85;;;13.60;99.90;;;;;;4768159;29;90117;-32
2022/10/27 01:29:24;;;;;;;12.70;10.35;;;13.60;99.90;;;;;;4808426;29;89563;-29
2022/10/27 01:32:10;;;;;;;14.48;8.98;;;13.70;99.90;;;;;;4807540;29;89522;-30
2022/10/27 01:34:45;;;;;;;10.63;9.23;;;13.70;99.90;;;;;;4807758;29;89856;-29
2022/10/27 01:37:12;;;;;;;14.93;9.15;;;13.70;99.90;;;;;;4808294;29;90086;-33
2022/10/27 01:39:49;;;;;;;19.50;10.07;;;13.70;99.90;;;;;;4808282;29;90475;-29
2022/10/27 01:42:35;;;;;;;10.80;9.13;;;13.70;99.90;;;;;;4807943;29;89596;-30
2022/10/27 01:45:02;;;;;;;10.75;8.23;;;13.70;99.90;;;;;;4807658;29;90225;-31
2022/10/27 01:47:30;;;;;;;14.93;7.88;;;13.80;99.90;;;;;;4808461;29;90787;-32
2022/10/27 01:49:55;;;;;;;9.82;8.68;;;13.80;99.90;;;;;;4808074;29;89495;-31
2022/10/27 01:52:44;;;;;;;10.00;8.50;;;13.80;99.90;;;;;;4807634;29;89565;-29
2022/10/27 01:55:22;;;;;;;15.48;9.48;;;13.80;99.90;;;;;;4807851;29;89083;-27
2022/10/27 01:58:16;;;;;;;12.32;8.68;;;13.80;99.90;;;;;;4807139;29;89974;-29
2022/10/27 02:00:57;;;;;;;12.02;9.38;;;13.80;99.90;;;;;;4807942;29;90053;-32
2022/10/27 02:04:02;;;;;;;18.05;9.15;;;13.80;99.90;;;;;;4807438;29;90008;-30
2022/10/27 02:06:35;;;;;;;13.85;8.90;;;13.80;99.90;;;;;;4781544;29;89071;-30
2022/10/27 02:09:34;;;;;;;16.70;9.35;;;13.90;99.90;;;;;;4807303;29;88777;-33
2022/10/27 02:12:04;;;;;;;10.15;8.57;;;13.80;99.90;;;;;;4806662;29;89709;-29
2022/10/27 02:14:30;;;;;;;16.52;8.32;;;13.90;99.90;;;;;;4807533;29;88937;-28
2022/10/27 02:16:57;;;;;;;10.52;9.38;;;13.80;99.90;;;;;;4807628;29;89045;-32
2022/10/27 02:19:28;;;;;;;11.93;8.65;;;13.90;99.90;;;;;;4807937;29;88952;-28
2022/10/27 02:21:57;;;;;;;9.52;8.57;;;13.90;99.90;;;;;;4807223;29;89991;-27
2022/10/27 02:24:23;;;;;;;10.02;8.70;;;13.90;99.90;;;;;;4807790;29;90087;-30
2022/10/27 02:26:55;;;;;;;10.90;9.20;;;13.90;99.90;;;;;;4807600;29;90434;-30
2022/10/27 02:29:30;;;;;;;10.38;8.48;;;13.90;99.90;;;;;;4807082;29;90530;-29
2022/10/27 02:31:57;;;;;;;11.85;8.85;;;14.00;99.90;;;;;;4806457;29;90529;-29
2022/10/27 02:34:25;;;;;;;9.85;8.48;;;14.00;99.90;;;;;;4806797;29;89661;-33
2022/10/27 02:36:51;;;;;;;12.15;8.68;;;13.90;99.90;;;;;;4807283;29;90437;-30
2022/10/27 02:39:17;;;;;;;11.68;8.40;;;14.00;99.90;;;;;;4806903;29;89436;-29
2022/10/27 02:41:42;;;;;;;12.93;8.40;;;13.90;99.90;;;;;;4807470;29;89675;-32
2022/10/27 02:44:08;;;;;;;9.05;8.15;;;13.90;99.90;;;;;;4806490;29;89187;-31
2022/10/27 02:46:33;;;;;;;9.93;8.23;;;13.90;99.90;;;;;;4806665;29;90514;-32
2022/10/27 02:48:59;;;;;;;12.85;7.97;;;13.90;99.90;;;;;;4806993;29;90031;-28
2022/10/27 02:51:25;;;;;;;14.75;8.40;;;13.90;99.90;;;;;;4807022;29;89908;-29
2022/10/27 02:53:50;;;;;;;9.73;8.38;;;14.00;99.90;;;;;;4807182;29;89221;-29
2022/10/27 02:56:16;;;;;;;12.15;9.52;;;13.90;99.90;;;;;;4806431;29;90384;-31
2022/10/27 02:58:41;;;;;;;12.38;8.32;;;13.90;99.90;;;;;;4807309;29;90030;-28
2022/10/27 03:01:07;;;;;;;14.05;9.00;;;13.90;99.90;;;;;;4806699;29;89944;-31
2022/10/27 03:03:33;;;;;;;10.60;8.25;;;13.90;99.90;;;;;;4807086;29;90198;-29
2022/10/27 03:05:58;;;;;;;8.95;8.07;;;13.90;99.90;;;;;;4806708;29;90419;-28
2022/10/27 03:08:24;;;;;;;23.80;10.02;;;13.80;99.90;;;;;;4806399;29;89758;-30
2022/10/27 03:10:49;;;;;;;10.27;8.93;;;13.80;99.90;;;;;;4806295;29;89598;-31
2022/10/27 03:13:15;;;;;;;12.00;9.38;;;13.90;99.90;;;;;;4806694;29;88590;-30
2022/10/27 03:15:43;;;;;;;10.88;8.05;;;13.80;99.90;;;;;;4807098;29;91391;-32
2022/10/27 03:18:08;;;;;;;12.48;9.70;;;13.80;99.90;;;;;;4806709;29;91399;-32
2022/10/27 03:20:34;;;;;;;11.20;8.82;;;13.80;99.90;;;;;;4806871;29;90804;-30
2022/10/27 03:22:59;;;;;;;18.83;10.10;;;13.80;99.90;;;;;;4806674;29;88536;-30
2022/10/27 03:25:25;;;;;;;12.80;8.70;;;13.80;99.90;;;;;;4805579;29;90161;-29
2022/10/27 03:27:51;;;;;;;12.57;8.43;;;13.80;99.90;;;;;;4806710;29;89702;-31
2022/10/27 03:30:16;;;;;;;12.27;9.85;;;13.80;99.90;;;;;;4806854;29;90874;-29
2022/10/27 03:32:47;;;;;;;12.55;9.38;;;13.80;99.90;;;;;;4805919;29;89025;-28
2022/10/27 03:35:13;;;;;;;14.40;9.88;;;13.80;99.90;;;;;;4805537;29;90310;-31
2022/10/27 03:37:39;;;;;;;19.52;10.88;;;13.70;99.90;;;;;;4807380;29;88816;-30
2022/10/27 03:40:05;;;;;;;18.38;9.77;;;13.70;99.90;;;;;;4805972;29;90934;-28
2022/10/27 03:42:30;;;;;;;9.23;8.07;;;13.60;99.90;;;;;;4805852;29;90485;-34
2022/10/27 03:44:56;;;;;;;16.10;9.02;;;13.70;99.90;;;;;;4806056;29;89442;-30
2022/10/27 03:47:21;;;;;;;10.73;9.15;;;13.60;99.90;;;;;;4806183;29;89497;-29
2022/10/27 03:49:47;;;;;;;8.38;7.45;;;13.60;99.90;;;;;;4806998;29;90315;-28
2022/10/27 03:52:13;;;;;;;11.85;9.13;;;13.50;99.90;;;;;;4806565;29;90761;-28
2022/10/27 03:54:39;;;;;;;14.27;9.10;;;13.50;99.90;;;;;;4806390;29;90412;-30
2022/10/27 03:57:05;;;;;;;17.70;8.40;;;13.40;99.90;;;;;;4792217;29;91426;-31
2022/10/27 03:59:30;;;;;;;16.55;8.82;;;13.30;99.90;;;;;;4792211;29;89649;-29
2022/10/27 04:01:56;;;;;;;9.90;8.57;;;13.20;99.90;;;;;;4810058;29;88688;-31
2022/10/27 04:04:21;;;;;;;10.90;9.52;;;13.10;99.90;;;;;;4809036;29;90205;-31
2022/10/27 04:06:47;;;;;;;12.13;9.52;;;13.00;99.90;;;;;;4808758;29;90905;-32
2022/10/27 04:09:12;;;;;;;14.05;8.90;;;12.90;99.90;;;;;;4809119;29;90499;-30
2022/10/27 04:11:38;;;;;;;12.80;10.40;;;12.90;99.90;;;;;;4809902;29;89169;-31
2022/10/27 04:14:04;;;;;;;10.38;9.15;;;12.80;99.90;;;;;;4808289;29;90437;-30
2022/10/27 04:16:29;;;;;;;10.75;9.10;;;12.80;99.90;;;;;;4808837;29;89927;-31
2022/10/27 04:18:55;;;;;;;10.15;8.18;;;12.70;99.90;;;;;;4809029;29;89689;-28
2022/10/27 04:21:20;;;;;;;12.52;11.27;;;12.60;99.90;;;;;;4809143;29;88721;-29
2022/10/27 04:23:46;;;;;;;10.98;9.88;;;12.60;99.90;;;;;;4808302;29;91085;-32
2022/10/27 04:26:11;;;;;;;8.95;7.43;;;12.60;99.90;;;;;;4808430;29;89558;-31
2022/10/27 04:28:37;;;;;;;10.75;9.15;;;12.50;99.90;;;;;;4809054;29;89556;-31
2022/10/27 04:31:03;;;;;;;11.45;8.88;;;12.50;99.90;;;;;;4808835;29;90561;-29
2022/10/27 04:33:28;;;;;;;11.68;9.23;;;12.50;99.90;;;;;;4808446;29;90137;-30
2022/10/27 04:35:54;;;;;;;11.68;9.35;;;12.50;99.90;;;;;;4840369;23;90120;-28
2022/10/27 04:38:19;;;;;;;13.32;10.82;;;12.50;99.90;;;;;;4808804;29;89705;-30
2022/10/27 04:40:45;;;;;;;11.82;9.23;;;12.40;99.90;;;;;;4808364;29;89491;-32
2022/10/27 04:43:11;;;;;;;10.35;9.30;;;12.40;99.90;;;;;;4808699;29;90448;-32
2022/10/27 04:45:36;;;;;;;11.02;8.40;;;12.40;99.90;;;;;;4808453;29;90161;-33
2022/10/27 04:48:02;;;;;;;11.05;9.80;;;12.30;99.90;;;;;;4808616;29;89826;-29
2022/10/27 04:50:27;;;;;;;13.32;9.60;;;12.30;99.90;;;;;;4808502;29;88970;-30
2022/10/27 04:52:59;;;;;;;12.95;11.02;;;12.30;99.90;;;;;;4808610;29;89912;-28
2022/10/27 04:55:25;;;;;;;7.88;7.15;;;12.30;99.90;;;;;;4807885;29;89707;-31
2022/10/27 04:57:51;;;;;;;14.90;9.02;;;12.20;99.90;;;;;;4808855;29;90631;-31
2022/10/27 05:00:17;;;;;;;11.60;9.02;;;12.20;99.90;;;;;;4808340;29;88620;-33
2022/10/27 05:02:43;;;;;;;12.18;10.18;;;12.10;99.90;;;;;;4808261;29;90102;-30
2022/10/27 05:05:09;;;;;;;11.05;9.85;;;12.10;99.90;;;;;;4807643;29;90027;-31
2022/10/27 05:07:34;;;;;;;14.48;9.07;;;12.10;99.90;;;;;;4808246;29;90055;-33
2022/10/27 05:10:00;;;;;;;11.35;10.10;;;12.20;99.90;;;;;;4808734;29;89353;-32
2022/10/27 05:12:26;;;;;;;14.43;9.88;;;12.20;99.90;;;;;;4807108;29;89891;-33
2022/10/27 05:14:51;;;;;;;14.85;11.02;;;12.20;99.90;;;;;;4775907;29;89674;-28
2022/10/27 05:17:17;;;;;;;11.88;9.93;;;12.30;99.90;;;;;;4807416;29;89314;-28
2022/10/27 05:19:42;;;;;;;13.40;10.57;;;12.30;99.90;;;;;;4808109;29;89264;-28
2022/10/27 05:22:08;;;;;;;18.38;11.68;;;12.40;99.90;;;;;;4807853;29;89702;-31
2022/10/27 05:24:34;;;;;;;17.45;11.40;;;12.50;99.90;;;;;;4807598;29;89654;-28
2022/10/27 05:27:00;;;;;;;15.32;11.93;;;12.60;99.90;;;;;;4807466;29;88741;-30
2022/10/27 05:29:26;;;;;;;12.80;11.50;;;12.60;99.90;;;;;;4807404;29;88548;-29
2022/10/27 05:31:52;;;;;;;18.38;11.43;;;12.70;99.90;;;;;;4807761;29;90155;-31
2022/10/27 05:34:18;;;;;;;13.57;10.35;;;12.70;99.90;;;;;;4807469;29;88622;-28
2022/10/27 05:36:43;;;;;;;18.08;11.65;;;12.80;99.90;;;;;;4806867;29;89834;-30
2022/10/27 05:39:09;;;;;;;16.42;11.45;;;12.80;99.90;;;;;;4807756;29;89255;-31
2022/10/27 05:41:34;;;;;;;14.45;11.07;;;12.80;99.90;;;;;;4806663;29;90510;-31
2022/10/27 05:44:00;;;;;;;18.17;10.85;;;12.90;99.90;;;;;;4806593;29;91009;-31
2022/10/27 05:46:25;;;;;;;23.80;11.90;;;12.90;99.90;;;;;;4807460;29;90467;-29
2022/10/27 05:48:51;;;;;;;14.50;10.15;;;12.90;99.90;;;;;;4807492;29;89430;-28
2022/10/27 05:51:16;;;;;;;18.30;12.02;;;12.90;99.90;;;;;;4807335;29;90257;-28
2022/10/27 05:53:42;;;;;;;21.63;12.27;;;13.00;99.90;;;;;;4806723;29;89898;-31
2022/10/27 05:56:08;;;;;;;15.75;10.93;;;12.90;99.90;;;;;;4806085;29;90208;-32
2022/10/27 05:58:33;;;;;;;12.68;11.38;;;12.90;99.90;;;;;;4807469;29;89669;-32
2022/10/27 06:00:59;;;;;;;13.90;10.05;;;12.90;99.90;;;;;;4806915;29;90620;-27
2022/10/27 06:03:25;;;;;;;15.27;10.43;;;12.90;99.90;;;;;;4806470;29;89984;-28
2022/10/27 06:05:51;;;;;;;11.77;10.32;;;12.90;99.90;;;;;;4807264;29;89694;-29
2022/10/27 06:08:18;;;;;;;12.73;10.35;;;12.90;99.90;;;;;;4806054;29;89386;-32
2022/10/27 06:10:45;;;;;;;23.85;12.43;;;12.90;99.90;;;;;;4805993;29;90339;-28
2022/10/27 06:13:13;;;;;;;14.98;12.18;;;12.90;99.90;;;;;;4807050;29;89773;-28
2022/10/27 06:15:39;;;;;;;;;;;12.80;99.90;;;;;;4790916;29;89576;-30
2022/10/27 06:18:05;;;;;;;11.55;9.55;;;12.80;99.90;;;;;;4809090;29;87879;-32
2022/10/27 06:20:31;;;;;;;14.82;11.68;;;12.80;99.90;;;;;;4807235;29;89896;-30
2022/10/27 06:22:57;;;;;;;11.75;10.43;;;12.80;99.90;;;;;;4806827;29;89640;-29
2022/10/27 06:25:23;;;;;;;14.13;10.57;;;12.80;99.90;;;;;;4806793;29;90192;-30
2022/10/27 06:27:48;;;;;;;14.00;12.27;;;12.90;99.90;;;;;;4807057;29;90381;-30
2022/10/27 06:30:14;;;;;;;13.35;9.73;;;12.90;99.90;;;;;;4806295;29;90231;-29
2022/10/27 06:32:40;;;;;;;14.40;11.07;;;12.90;99.90;;;;;;4807030;29;90744;-33
2022/10/27 06:35:07;;;;;;;16.00;10.95;;;13.00;99.90;;;;;;4806504;29;90514;-30
2022/10/27 06:37:37;;;;;;;16.38;10.13;;;13.00;99.90;;;;;;4806752;29;88459;-31
2022/10/27 06:40:03;;;;;;;16.42;12.40;;;13.00;99.90;;;;;;4806187;29;89782;-32
2022/10/27 06:42:29;;;;;;;15.98;13.40;;;13.00;99.90;;;;;;4806372;29;89521;-32
2022/10/27 06:44:55;;;;;;;13.30;10.80;;;13.10;99.90;;;;;;4806193;29;90112;-30
2022/10/27 06:47:20;;;;;;;15.75;10.65;;;13.10;99.90;;;;;;4805725;29;89174;-30
2022/10/27 06:49:46;;;;;;;11.70;10.40;;;13.20;99.90;;;;;;4806672;29;90514;-29
2022/10/27 06:52:11;;;;;;;14.10;11.40;;;13.20;99.90;;;;;;4805759;29;88412;-28
2022/10/27 06:54:37;;;;;;;14.15;11.55;;;13.20;99.90;;;;;;4804624;29;89387;-30
2022/10/27 06:57:02;;;;;;;13.82;11.43;;;13.20;99.90;;;;;;4804074;29;91225;-30
2022/10/27 06:59:28;;;;;;;19.58;11.05;;;13.30;99.90;;;;;;4803792;29;90206;-33
2022/10/27 07:01:53;;;;;;;16.27;11.77;;;13.30;99.90;;;;;;4803769;29;88878;-29
2022/10/27 07:04:19;;;;;;;16.88;11.05;;;13.40;99.90;;;;;;4803869;29;89556;-33
2022/10/27 07:06:45;;;;;;;19.13;11.80;;;13.40;99.90;;;;;;4802719;29;88428;-29
2022/10/27 07:09:10;;;;;;;14.25;9.40;;;13.40;99.90;;;;;;4804166;29;90387;-30
2022/10/27 07:11:36;;;;;;;16.92;11.43;;;13.50;99.90;;;;;;4804452;29;90356;-29
2022/10/27 07:14:02;;;;;;;15.77;10.25;;;13.50;99.90;;;;;;4803407;29;89676;-31
2022/10/27 07:16:28;;;;;;;20.67;12.07;;;13.60;99.90;;;;;;4804188;29;88942;-31
2022/10/27 07:18:53;;;;;;;17.60;11.63;;;13.70;99.90;;;;;;4803784;29;90723;-28
2022/10/27 07:21:19;;;;;;;11.93;9.40;;;13.80;99.90;;;;;;4801835;29;91040;-28
2022/10/27 07:23:44;;;;;;;11.95;10.70;;;13.80;99.90;;;;;;4803936;29;90210;-27
2022/10/27 07:26:10;;;;;;;14.85;11.57;;;13.90;99.90;;;;;;4803644;29;89152;-29
2022/10/27 07:28:36;;;;;;;14.13;10.52;;;13.90;99.90;;;;;;4804289;29;89572;-32
2022/10/27 07:31:01;;;;;;;13.85;10.05;;;13.90;99.90;;;;;;4805207;29;90409;-29
2022/10/27 07:33:27;;;;;;;14.32;9.82;;;14.00;99.90;;;;;;4806929;29;90007;-28
2022/10/27 07:35:53;;;;;;;11.57;10.45;;;14.00;99.90;;;;;;4806659;29;88729;-29
2022/10/27 07:38:19;;;;;;;17.17;11.88;;;14.10;99.90;;;;;;4806962;29;90587;-31
2022/10/27 07:40:45;;;;;;;13.85;8.82;;;14.10;99.90;;;;;;4806827;29;89501;-30
2022/10/27 07:43:11;;;;;;;18.65;10.60;;;14.10;99.90;;;;;;4807331;29;89534;-33
2022/10/27 07:45:41;;;;;;;11.80;10.63;;;14.20;99.90;;;;;;4806247;29;90128;-30
2022/10/27 07:48:11;;;;;;;16.17;10.73;;;14.30;99.90;;;;;;4806968;29;90683;-30
2022/10/27 07:50:36;;;;;;;12.85;10.27;;;14.30;99.90;;;;;;4806000;29;90298;-31
2022/10/27 07:53:03;;;;;;;16.65;10.98;;;14.30;99.90;;;;;;4807248;29;90123;-29
2022/10/27 07:55:30;;;;;;;10.20;9.20;;;14.40;99.90;;;;;;4807350;29;88948;-31
2022/10/27 07:58:10;;;;;;;16.83;10.50;;;14.40;99.90;;;;;;4806387;29;90719;-32
2022/10/27 08:00:39;;;;;;;9.93;8.93;;;14.50;99.90;;;;;;4805554;29;90054;-30
2022/10/27 08:03:07;;;;;;;12.90;10.88;;;14.60;99.90;;;;;;4807150;29;88616;-34
2022/10/27 08:05:34;;;;;;;16.33;10.55;;;14.60;99.90;;;;;;4807313;29;90989;-32
2022/10/27 08:08:02;;;;;;;14.57;10.35;;;14.60;99.90;;;;;;4806609;29;90624;-29
2022/10/27 08:10:29;;;;;;;16.08;11.93;;;14.70;99.90;;;;;;4805867;29;89721;-31
2022/10/27 08:12:55;;;;;;;13.60;10.88;;;14.70;99.90;;;;;;4805442;29;91629;-30
2022/10/27 08:15:20;;;;;;;14.00;10.52;;;14.80;99.90;;;;;;4806826;29;88488;-30
2022/10/27 08:17:54;;;;;;;10.75;9.40;;;14.80;99.90;;;;;;4805674;29;90532;-30
2022/10/27 08:20:20;;;;;;;12.27;9.70;;;14.90;99.90;;;;;;4807565;29;89484;-30
2022/10/27 08:22:53;;;;;;;14.57;9.93;;;14.90;99.90;;;;;;4806512;29;89293;-30
2022/10/27 08:25:18;;;;;;;13.70;9.63;;;15.00;99.90;;;;;;4807529;29;87764;-32
2022/10/27 08:27:44;;;;;;;11.93;9.77;;;15.10;99.90;;;;;;4806772;29;90863;-29
2022/10/27 08:30:09;;;;;;;10.13;8.23;;;15.30;99.90;;;;;;4806605;29;88943;-32
2022/10/27 08:32:35;;;;;;;9.95;8.90;;;15.30;99.90;;;;;;4807467;29;89789;-30
2022/10/27 08:35:01;;;;;;;12.52;8.55;;;15.30;99.90;;;;;;4805464;29;88991;-31
2022/10/27 08:37:26;;;;;;;12.20;9.63;;;15.40;99.90;;;;;;4806930;29;90486;-28
2022/10/27 08:39:52;;;;;;;11.05;9.25;;;15.40;99.90;;;;;;4806580;29;89747;-31
2022/10/27 08:42:26;;;;;;;13.75;10.52;;;15.50;99.90;;;;;;4805535;29;89548;-32
2022/10/27 08:44:57;;;;;;;8.38;7.53;;;15.50;99.90;;;;;;4804408;29;88360;-30
2022/10/27 08:47:25;;;;;;;12.00;8.68;;;15.50;99.90;;;;;;4806323;29;90119;-28
2022/10/27 08:50:10;;;;;;;11.45;7.95;;;15.50;99.90;;;;;;4806254;29;89578;-31
2022/10/27 08:52:48;;;;;;;9.38;8.25;;;15.50;99.90;;;;;;4807228;29;89527;-29
2022/10/27 08:55:14;;;;;;;9.80;7.55;;;15.50;99.90;;;;;;4807175;29;89814;-31
2022/10/27 08:58:00;;;;;;;15.75;8.63;;;15.60;99.90;;;;;;4806030;29;90027;-31
2022/10/27 09:00:29;;;;;;;8.68;6.53;;;15.60;99.90;;;;;;4805657;29;88873;-33
2022/10/27 09:03:12;;;;;;;11.57;7.93;;;15.60;99.90;;;;;;4806209;29;90429;-30
2022/10/27 09:06:09;;;;;;;7.85;7.03;;;15.70;99.90;;;;;;4806711;29;89815;-30
2022/10/27 09:08:54;;;;;;;11.82;6.93;;;15.80;99.90;;;;;;4805624;29;90298;-33
2022/10/27 09:11:35;;;;;;;10.65;6.38;;;15.90;99.90;;;;;;4806068;29;89774;-30
2022/10/27 09:14:06;;;;;;;14.95;7.38;;;16.00;99.90;;;;;;4806335;29;89852;-33
2022/10/27 09:16:58;;;;;;;6.93;6.22;;;16.10;99.90;;;;;;4806447;29;89041;-32
2022/10/27 09:19:28;;;;;;;9.88;8.02;;;16.20;99.90;;;;;;4801470;29;90766;-30
2022/10/27 09:21:54;;;;;;;8.35;6.55;;;16.30;99.90;;;;;;4805961;29;89827;-28
2022/10/27 09:24:24;;;;;;;6.90;6.28;;;16.40;99.90;;;;;;4806170;29;90295;-30
2022/10/27 09:26:52;;;;;;;24.23;9.20;;;16.40;99.90;;;;;;4806057;29;89382;-30
2022/10/27 09:29:22;;;;;;;6.80;5.85;;;16.50;99.90;;;;;;4805656;29;90124;-32
2022/10/27 09:31:54;;;;;;;8.82;5.80;;;16.60;99.90;;;;;;4805388;29;91147;-30
2022/10/27 09:34:44;;;;;;;6.05;5.43;;;16.60;99.90;;;;;;4806052;29;89997;-30
2022/10/27 09:37:17;;;;;;;9.82;5.75;;;16.70;99.90;;;;;;4806537;29;89017;-29
2022/10/27 09:39:46;;;;;;;22.27;6.90;;;16.80;99.90;;;;;;4805538;29;90182;-30
2022/10/27 09:42:12;;;;;;;7.28;6.25;;;16.90;99.90;;;;;;4805566;29;89099;-30
2022/10/27 09:44:38;;;;;;;8.48;5.80;;;16.90;99.90;;;;;;4806020;29;89827;-30
2022/10/27 09:47:04;;;;;;;7.75;5.47;;;16.90;99.90;;;;;;4805249;29;88933;-32
2022/10/27 09:49:39;;;;;;;9.65;5.43;;;16.90;99.90;;;;;;4804512;29;89226;-32
2022/10/27 09:52:11;;;;;;;10.32;5.63;;;17.00;99.90;;;;;;4805519;29;90835;-28
2022/10/27 09:54:38;;;;;;;13.07;5.78;;;16.90;99.90;;;;;;4805239;29;91504;-31
2022/10/27 09:57:09;;;;;;;10.15;4.43;;;17.00;99.90;;;;;;4805360;29;89592;-31
2022/10/27 09:59:36;;;;;;;4.75;4.30;;;17.00;99.90;;;;;;4806132;29;90569;-32
2022/10/27 10:02:04;;;;;;;5.82;4.47;;;17.00;99.90;;;;;;4805229;29;91043;-29
2022/10/27 10:04:41;;;;;;;5.22;4.70;;;17.10;99.90;;;;;;4805270;29;90253;-29
2022/10/27 10:07:26;;;;;;;6.15;5.10;;;17.20;99.90;;;;;;4805778;29;89175;-30
2022/10/27 10:10:18;;;;;;;5.60;3.58;;;17.20;99.90;;;;;;4806068;29;90015;-30
2022/10/27 10:12:43;;;;;;;7.55;4.78;;;17.20;99.90;;;;;;4805067;29;89842;-30
2022/10/27 10:15:09;;;;;;;5.38;3.47;;;17.30;99.90;;;;;;4805930;29;90204;-29
2022/10/27 10:17:35;;;;;;;9.98;4.45;;;17.40;99.90;;;;;;4804445;29;89168;-31
2022/10/27 10:20:02;;;;;;;6.25;4.47;;;17.40;99.90;;;;;;4804788;29;91055;-29
2022/10/27 10:22:30;;;;;;;9.48;4.40;;;17.40;99.90;;;;;;4805492;29;89114;-30
2022/10/27 10:25:02;;;;;;;23.95;5.72;;;17.50;99.90;;;;;;4805005;29;89660;-30
2022/10/27 10:27:31;;;;;;;5.53;3.90;;;17.60;99.90;;;;;;4805690;29;90023;-31
2022/10/27 10:30:01;;;;;;;4.35;3.78;;;17.60;99.90;;;;;;4804919;29;90862;-29
2022/10/27 10:32:30;;;;;;;14.68;4.18;;;17.70;99.90;;;;;;4805133;29;90319;-30
2022/10/27 10:34:56;;;;;;;4.80;3.45;;;17.80;99.90;;;;;;4804666;29;90290;-31
2022/10/27 10:37:33;;;;;;;6.75;3.10;;;17.90;99.90;;;;;;4804598;29;88868;-30
2022/10/27 10:40:13;;;;;;;5.00;3.63;;;18.00;99.90;;;;;;4805523;29;90041;-32
2022/10/27 10:42:43;;;;;;;11.77;3.72;;;18.10;99.90;;;;;;4803679;29;90848;-31
2022/10/27 10:45:17;;;;;;;4.28;2.72;;;18.20;99.90;;;;;;4804871;29;90733;-30
2022/10/27 10:47:47;;;;;;;4.55;2.75;;;18.20;99.90;;;;;;4804681;29;89738;-31
2022/10/27 10:50:14;;;;;;;4.97;3.30;;;18.30;99.90;;;;;;4805084;29;89130;-31
2022/10/27 10:52:46;;;;;;;3.40;3.10;;;18.30;99.90;;;;;;4804091;29;90383;-33
2022/10/27 10:55:37;;;;;;;6.90;3.17;;;18.30;99.90;;;;;;4804764;29;89798;-30
2022/10/27 10:58:02;;;;;;;4.60;3.00;;;18.30;99.90;;;;;;4795158;29;88858;-31
2022/10/27 11:00:28;;;;;;;8.93;3.92;;;18.30;99.90;;;;;;4804534;29;90564;-32
2022/10/27 11:02:59;;;;;;;5.43;3.35;;;18.30;99.90;;;;;;4804247;29;89436;-29
2022/10/27 11:05:35;;;;;;;14.52;4.05;;;18.40;99.90;;;;;;4803226;29;89145;-34
2022/10/27 11:08:04;;;;;;;10.50;3.63;;;18.40;99.90;;;;;;4803885;29;90471;-31
2022/10/27 11:10:37;;;;;;;5.80;3.05;;;18.30;99.90;;;;;;4805032;29;90461;-30
2022/10/27 11:13:05;;;;;;;7.80;3.45;;;18.40;99.90;;;;;;4803960;29;90087;-30
2022/10/27 11:15:31;;;;;;;9.27;4.00;;;18.40;99.90;;;;;;4805188;29;89646;-29
2022/10/27 11:18:22;;;;;;;5.88;3.88;;;18.40;99.90;;;;;;4804429;29;89610;-33
2022/10/27 11:21:00;;;;;;;6.38;2.70;;;18.40;99.90;;;;;;4787286;29;90785;-33
2022/10/27 11:23:30;;;;;;;5.15;3.60;;;18.50;99.90;;;;;;4804877;29;89607;-28
2022/10/27 11:25:58;;;;;;;3.47;3.17;;;18.50;99.90;;;;;;4804592;29;89416;-32
2022/10/27 11:28:33;;;;;;;4.47;2.78;;;18.60;99.90;;;;;;4805002;29;89331;-31
2022/10/27 11:32:00;;;;;;;10.23;4.05;;;18.60;99.90;;;;;;4803715;29;90237;-31
2022/10/27 11:35:02;;;;;;;5.07;2.88;;;18.60;99.90;;;;;;4780214;29;90894;-29
2022/10/27 11:37:33;;;;;;;4.25;3.28;;;18.70;99.90;;;;;;4783540;29;90801;-31
2022/10/27 11:40:25;;;;;;;4.35;3.13;;;18.70;99.90;;;;;;4804626;29;89683;-33
2022/10/27 11:43:14;;;;;;;5.00;2.83;;;18.60;99.90;;;;;;4803553;29;90070;-29
2022/10/27 11:45:57;;;;;;;5.70;3.25;;;18.60;99.90;;;;;;4803644;29;91061;-30
2022/10/27 11:48:28;;;;;;;4.05;2.40;;;18.60;99.90;;;;;;4804375;29;89006;-32
2022/10/27 11:50:59;;;;;;;4.50;2.63;;;18.60;99.90;;;;;;4804894;29;89366;-34
2022/10/27 11:53:25;;;;;;;4.43;2.70;;;18.60;99.90;;;;;;4804332;29;89512;-31
2022/10/27 11:56:02;;;;;;;2.80;2.20;;;18.60;99.90;;;;;;4803610;29;89731;-33
2022/10/27 11:58:46;;;;;;;8.77;2.40;;;18.70;99.90;;;;;;4803839;29;89883;-32
2022/10/27 12:01:30;;;;;;;6.75;3.25;;;18.80;99.90;;;;;;4803554;29;90282;-30
2022/10/27 12:03:58;;;;;;;4.15;2.42;;;18.90;99.90;;;;;;4804000;29;90238;-28
2022/10/27 12:06:24;;;;;;;3.25;2.35;;;18.90;99.90;;;;;;4804336;29;90917;-29
2022/10/27 12:08:57;;;;;;;10.98;3.15;;;18.90;99.90;;;;;;4804538;29;89498;-30
2022/10/27 12:12:07;;;;;;;5.45;2.47;;;18.90;99.90;;;;;;4803536;29;88523;-31
2022/10/27 12:14:59;;;;;;;4.25;2.35;;;18.90;99.90;;;;;;4804097;29;90258;-33
2022/10/27 12:17:57;;;;;;;5.03;2.78;;;18.90;99.90;;;;;;4799993;29;89767;-31
2022/10/27 12:20:55;;;;;;;3.95;2.35;;;18.90;99.90;;;;;;4807265;29;90401;-30
2022/10/27 12:23:24;;;;;;;4.00;2.50;;;18.80;99.90;;;;;;4790483;29;89228;-31
2022/10/27 12:25:55;;;;;;;7.25;3.03;;;18.90;99.90;;;;;;4806532;29;90483;-32
2022/10/27 12:28:24;;;;;;;7.35;2.25;;;18.90;99.90;;;;;;4806239;29;90640;-33
2022/10/27 12:30:50;;;;;;;2.95;2.65;;;18.90;99.90;;;;;;4806733;29;90406;-30
2022/10/27 12:33:33;;;;;;;4.63;2.65;;;18.90;99.90;;;;;;4807556;29;88899;-32
2022/10/27 12:36:10;;;;;;;10.93;2.25;;;18.90;99.90;;;;;;4805437;29;90342;-28
2022/10/27 12:38:57;;;;;;;5.65;2.45;;;18.90;99.90;;;;;;4806299;29;89618;-32
2022/10/27 12:42:01;;;;;;;5.80;2.95;;;18.90;99.90;;;;;;4806736;29;90042;-34
2022/10/27 12:44:39;;;;;;;2.90;2.53;;;18.90;99.90;;;;;;4785845;29;88390;-29
2022/10/27 12:47:46;;;;;;;3.20;2.63;;;18.90;99.90;;;;;;4806680;29;90779;-31
2022/10/27 12:50:30;;;;;;;5.57;3.03;;;18.90;99.90;;;;;;4806325;29;88542;-31
2022/10/27 12:53:16;;;;;;;3.13;2.13;;;19.00;99.90;;;;;;4806494;29;89459;-31
2022/10/27 12:55:56;;;;;;;4.57;3.00;;;19.00;99.90;;;;;;4806401;29;89819;-29